Kware, Nigeria
Current Conditions -  °F | °C
As of 7:00 AM on Friday 31 Oct 2014 (Local Time) from DRRN Reporting Station
Sand / Dust Storm Sand / Dust Storm  
Wind Chill: 81°   Ceiling: Unl
Heat Index: 81°   Visibility: 2.8mi
Dew Point: 61°   Wind: 1mph
Humidity: 51%   Direction: 60°ENE
Pressure: 29.85"   Gusts: NA
Location:  13.21°N, 5.27°E
Report Text: DRRN 310600Z 06001KT 4500 DU NSC 27/16 Q1011 NOSIG
Loading
Personal Weather Stations






























Interactive Weather Map
Tropical Storm Tracking
New forecast layout! Learn more

10-Day Weather Forecast

Advertisements
Track Severe Weather on mobile